Dunstable, MA (01827)

11:46 AM EDT on May 27, 2015 (GMT -0400)
Jacques Ridge | Change Station
CLOSE
Current Station
Personal Weather Station
Location: Tyngsboro, MA
Elevation: 263 ft
Nearby Weather Stations

Elev 263 ft 42.64 °N, 71.47 °W | Updated 13 seconds ago

Clear
Clear
84.7 °F
Feels Like 90 °F
N
2.0
Wind Variable Wind from SSW
Gusts 11.0 mph

Today
High -- | Low -- °F
--% Chance of Precip.
Yesterday
High -- | Low -- °F
Precip. -- in
5:13 AM 8:12 PM
Waxing Gibbous, 68% visible
Pressure 30.84 in
Visibility 10.0 miles
Clouds Clear
Heat Index 90 °F
Dew Point 72 °F
Humidity 65%
Rainfall 0.00 in
Snow Depth Not available.
UV 10 out of 12
Pollen 10.10 out of 12
PM2.5 Good
Flu Activity Local Activity
METAR KASH 271451Z 14006KT 10SM CLR 28/19 A3012 RMK AO2 58010 T02830194 SLP441 $

More Conditions Fewer Conditions

Pressure 30.84 in
Visibility 10.0 miles
Clouds Clear
Heat Index 90 °F
Dew Point 72 °F
Humidity 65%
Rainfall 0.00 in
Snow Depth Not available.
UV 10 out of 12
Pollen 10.10 out of 12
PM2.5 Good
Flu Activity Local Activity
METAR KASH 271451Z 14006KT 10SM CLR 28/19 A3012 RMK AO2 58010 T02830194 SLP441 $

More Conditions Fewer Conditions

10-Day Weather Forecast

Almanac

Astronomy

May. 27, 2015 Rise Set
Actual Time 5:13 AM EDT 8:12 PM EDT
Civil Twilight 4:40 AM EDT 8:46 PM EDT
Nautical Twilight 3:57 AM EDT 9:29 PM EDT
Astronomical Twilight 3:06 AM EDT 10:20 PM EDT
Moon 2:19 PM EDT 2:03 AM EDT
Length of Visible Light 16h 06m
Length of Day
14h 59m
Tomorrow will be 1m 31s longer.
Waxing Gibbous, 68% of the Moon is Illuminated
Today
Waxing Gibbous
Jun 2
Full
Jun 9
Last Quarter
Jun 16
New
Jun 24
First Quarter

Today's Extremes

State Highs State Lows

Community

WunderPhotos

Upload Photos

1,824,699 photos uploaded!

Nearby

Air Quality

  Air Quality AQ Index Pollutant
Yesterday Good
PM2.5
Yesterday Good
OZONE
Current Good
PM2.5
Wednesday Good
PM2.5
Wednesday Good
OZONE
Thursday Good
OZONE
Thursday Good
PM2.5

Snow Depth

Station Depth Elevation
No new snow has been reported.

Earthquake Activity

City Distance Mag. Time & Date
No recent earthquake activity has been reported nearby.
Minimum magnitude displayed is 2.5.

Coastal Water Temperatures

Place Temperature
No Stations Reporting

Nearby Weather Stations